Skip Navigation LinksHome page > Weather > Current weather Skip Navigation Links

Current Weather

Honolulu Intl, Honolulu

For information only: do not use for flight planning or navigation.
Latest weather
Observation time Saturday, November 22, 2014 4:53 PM HST
Local time Saturday, November 22, 2014 5:11 PM HST
Flight conditions Visual Meteorological Conditions
Winds
Wind direction North-Northeast (20°)
Wind speed 8 mph
Visibility 10 mi.
Sky condition
Ceiling unlimited
Cloud layer few clouds 2,900 ft.
Cloud layer scattered clouds 5,500 ft.
Temperature 82°F
Dewpoint 66°F
Altimeter 29.98 in.Hg
Pressure change last 3 hours0.02 in.Hg
Pressure falling, then rising
Derived measurements
Relative humidity 58%
Heat index 84°F
Density altitude 1717 ft.
Sea-level pressure 29.98 in.Hg
Remarks
Automated weather observing station with precipitation discriminator.
METAR PHNL 230253Z 02007KT 10SM FEW029 SCT055 28/19 A2998 RMK AO2 SLP152 T02780189 55006

Settings

Location code

InnerDrive.Weather 4.0.5399.0 Release CLR 4.0.30319.34014
Copyright ©2014 Inner Drive Technology. All rights reserved. Portions Copyright ©1986-2014 David Braverman.

Find weather

Site navigation


Skip Navigation Links

Place info

Page info

PayPal - The safer, easier way to pay online!

Return home.

Copyright ©2014 Inner Drive Technology. Purveyors of fine, hand-crafted computer software. Page printed 2014-11-23T03:11:07 UTC.